Cambridge, United Kingdom

3:53 AM GMT on March 27, 2015 (GMT +0000)
ICAMBRID5 | | Change Station
CLOSE
Current Station
Personal Weather Station
Location: Cambridge, UK
Elevation: 50 ft
Nearby Weather Stations

Elev 50 ft 52.23 °N, 0.13 °E | Updated 8 minutes ago

Clear
Clear
39.2 °F
Feels Like 34 °F
N
8.1
Wind Variable Wind from West
Gusts 11.0 mph

Today
High -- | Low -- °F
--% Chance of Precip.
Yesterday
High -- | Low -- °F
Precip. -- in
5:46 AM 6:23 PM
Waxing Crescent, 48% visible
Pressure 29.96 in
Visibility 6.2 miles
Clouds Clear
Windchill 34 °F
Dew Point 18 °F
Humidity 43%
Rainfall 0.00 in
Snow Depth Not available.
UV 0 out of 12
Pollen Not available.
Air Quality Not available.
Flu Activity Not available.
METAR EGUN 270258Z AUTO 29012KT 9999 CLR 03/01 A2995 RMK AO2 SLP146 T00310006 52020

More Conditions Fewer Conditions

Pressure 29.96 in
Visibility 6.2 miles
Clouds Clear
Windchill 34 °F
Dew Point 18 °F
Humidity 43%
Rainfall 0.00 in
Snow Depth Not available.
UV 0 out of 12
Pollen Not available.
Air Quality Not available.
Flu Activity Not available.
METAR EGUN 270258Z AUTO 29012KT 9999 CLR 03/01 A2995 RMK AO2 SLP146 T00310006 52020

More Conditions Fewer Conditions

10-Day Weather Forecast

Almanac

Astronomy

Mar. 27, 2015 Rise Set
Actual Time
Civil Twilight
Nautical Twilight
Astronomical Twilight
Moon
Length of Visible Light
Length of Day
Tomorrow will be .
, % of the Moon is Illuminated

Today's Extremes

Country Highs Country Lows

Community

WunderPhotos

Upload Photos

1,808,703 photos uploaded!

WunderBlogs® & News

Nearby

Air Quality

  Air Quality AQ Index Pollutant
Not available.

Snow Depth

Station Depth Elevation

Earthquake Activity

City Distance Mag. Time & Date
Minimum magnitude displayed is 2.5.

Coastal Water Temperatures

Place Temperature

Stations

Nearby Weather Stations

Station Location Temp. Windchill Dew Point Humidity Wind Precip. Elev Updated Type